Terminal Aerodrome Forecast
Issued by NWS

Home | Current Version | Previous Version | Text Only | Print | Product List | Glossary On
Versions: 1 2 3 4 5 6 7 8 9 10 11 12
759
FTUS45 KTFX 242342
TAFLWT
TAF
KLWT 242342Z 2500/2524 07010KT P6SM SCT090 BKN140
      TEMPO 2501/2504 VRB15G30KT -TSRA BKN080CB
     FM250700 36010G18KT P6SM SCT090 SCT150
     FM251200 VRB06KT P6SM SKC=

USA.gov is the U.S. government's official web portal to all federal, state and local government web resources and services.